Terminal Aerodrome Forecast
Issued by NWS Birmingham, AL

Home | Current Version | Previous Version | Text Only | Print | Product List | Glossary On
Versions: 1 2 3 4 5 6 7 8 9 10 11 12 13 14 15 16 17 18 19
000
FTUS44 KBMX 221100
TAFBHM
TAF
KBHM 221139Z 2212/2312 10004KT P6SM OVC007
     FM221900 12008KT P6SM VCSH OVC009
     FM230200 15006KT 2SM SHRA BR OVC003=

USA.gov is the U.S. government's official web portal to all federal, state and local government web resources and services.